Latest Weather Observations for Swan Island

IDT60801

Issued at 10:35 pm EST Wednesday 1 October 2014 (issued every 30 minutes, with the page automatically refreshed every 10 minutes)

About weather observations | Map of weather stations | Latest weather observations for TAS | Other Formats
Station Details ID: 092123 Name: SWAN ISLAND Lat: -40.73 Lon: 148.12 Height: 15.0 m
Data from the previous 72 hours. | See also: Recent months at Swan Island
Date/Time
EST
Temp
°C
App
Temp
°C
Dew
Point
Rel
Hum
%
Delta-T
°C
Wind Press
QNH
hPa
Press
MSL
hPa
Rain
since 9 am
mm
Dir
 
Spd
km/h
Gust
km/h
Spd
kts
Gust
kts
01/10:30pm 11.8 - - - - W 33 54 18 29 1016.7 1016.7 0.0
01/10:09pm 11.8 - - - - W 39 57 21 31 1016.9 1016.9 0.0
01/10:00pm 11.7 - - - - W 37 52 20 28 1017.3 1017.3 0.0
01/09:31pm 11.5 - - - - W 32 50 17 27 1017.6 1017.6 0.0
01/09:30pm 11.5 - - - - W 33 50 18 27 1017.5 1017.5 0.0
01/09:00pm 11.5 - - - - W 30 43 16 23 1018.1 1018.1 0.0
01/08:30pm 11.4 - - - - W 30 46 16 25 1018.3 1018.3 0.0
01/08:00pm 11.6 - - - - W 33 48 18 26 1018.0 1018.0 0.0
01/07:30pm 11.6 - - - - W 30 43 16 23 1018.0 1018.0 0.0
01/07:09pm 11.7 - - - - W 32 54 17 29 1017.8 1017.8 0.0
01/07:00pm 11.8 - - - - W 35 48 19 26 1017.7 1017.7 0.0
01/06:30pm 11.7 - - - - W 39 56 21 30 1016.7 1016.7 0.0
01/06:00pm 12.0 - - - - W 43 56 23 30 1016.6 1016.6 0.0
01/05:30pm 12.1 - - - - W 33 48 18 26 1016.4 1016.4 0.0
01/05:25pm 12.2 - - - - W 33 52 18 28 1016.5 1016.5 0.0
01/05:00pm 12.5 - - - - W 41 56 22 30 1016.1 1016.1 0.0
01/04:30pm 12.9 - - - - W 41 56 22 30 1016.3 1016.3 0.0
01/04:00pm 13.2 - - - - W 41 59 22 32 1015.9 1015.9 0.0
01/03:30pm 13.4 - - - - W 37 57 20 31 1016.2 1016.2 0.0
01/03:15pm 13.6 - - - - W 33 52 18 28 1016.1 1016.1 0.0
01/03:00pm 13.6 - - - - W 33 50 18 27 1016.2 1016.2 0.0
01/02:30pm 13.7 - - - - WNW 35 50 19 27 1015.9 1015.9 0.0
01/02:14pm 13.5 - - - - WNW 33 54 18 29 1016.0 1016.0 0.0
01/02:00pm 13.7 - - - - WNW 32 46 17 25 1016.1 1016.1 0.0
01/01:46pm 13.4 - - - - W 30 50 16 27 1016.4 1016.4 0.0
01/01:30pm 14.4 - - - - W 35 50 19 27 1016.1 1016.1 0.0
01/01:15pm 14.2 - - - - W 39 57 21 31 1016.0 1016.0 0.0
01/01:00pm 13.6 - - - - W 41 59 22 32 1016.2 1016.2 0.0
01/12:33pm 13.4 - - - - W 30 50 16 27 1016.3 1016.3 0.0
01/12:30pm 13.9 - - - - W 30 46 16 25 1016.3 1016.3 0.0
01/12:00pm 14.0 - - - - W 32 48 17 26 1016.3 1016.3 0.0
01/11:50am 14.2 - - - - W 30 48 16 26 1016.1 1016.1 0.0
01/11:30am 14.0 - - - - W 32 43 17 23 1016.0 1016.0 0.0
01/11:00am 12.6 - - - - W 32 44 17 24 1015.9 1015.9 0.0
01/10:30am 13.4 - - - - W 26 37 14 20 1016.2 1016.2 0.0
01/10:00am 12.9 - - - - W 22 33 12 18 1016.0 1016.0 0.0
01/09:30am 12.0 - - - - W 24 33 13 18 1015.7 1015.7 0.0
01/09:00am 11.3 - - - - W 24 35 13 19 1015.5 1015.5 6.2
01/08:30am 10.3 - - - - WSW 19 28 10 15 1015.1 1015.1 6.2
01/08:00am 9.8 - - - - WSW 15 24 8 13 1014.6 1014.6 6.2
01/07:30am 8.9 - - - - WSW 19 30 10 16 1013.8 1013.8 6.2
01/07:00am 8.5 - - - - WSW 20 30 11 16 1013.2 1013.2 6.2
01/06:30am 7.3 - - - - WSW 20 30 11 16 1012.4 1012.4 6.2
01/06:00am 6.5 - - - - W 20 32 11 17 1011.5 1011.5 6.2
01/05:30am 6.7 - - - - WSW 20 30 11 16 1011.1 1011.1 6.2
01/05:00am 7.0 - - - - WSW 20 35 11 19 1010.2 1010.3 6.2
01/04:30am 7.0 - - - - SW 17 24 9 13 1009.5 1009.6 6.2
01/04:00am 7.6 - - - - WSW 20 33 11 18 1008.6 1008.7 6.2
01/03:30am 7.9 - - - - WSW 20 33 11 18 1007.7 1007.7 6.2
01/03:00am 8.1 - - - - W 22 33 12 18 1007.1 1007.1 6.2
01/02:30am 8.2 - - - - W 20 33 11 18 1006.9 1006.9 6.2
01/02:00am 8.4 - - - - WSW 22 37 12 20 1006.6 1006.6 6.2
01/01:30am 9.0 - - - - W 24 39 13 21 1006.2 1006.2 6.2
01/01:00am 9.2 - - - - WSW 26 52 14 28 1005.9 1005.9 6.2
01/12:31am 9.6 - - - - W 32 50 17 27 1005.2 1005.2 6.2
01/12:30am 9.6 - - - - W 33 50 18 27 1005.1 1005.1 6.2
01/12:00am 9.3 - - - - W 32 50 17 27 1004.8 1004.8 6.2
 
Date/Time
EST
Temp
°C
App
Temp
°C
Dew
Point
Rel
Hum
%
Delta-T
°C
Wind Press
QNH
hPa
Press
MSL
hPa
Rain
since 9 am
mm
Dir
 
Spd
km/h
Gust
km/h
Spd
kts
Gust
kts
30/11:59pm 9.3 - - - - W 32 50 17 27 1004.7 1004.7 6.2
30/11:30pm 9.6 - - - - W 37 50 20 27 1004.4 1004.4 6.2
30/11:00pm 9.6 - - - - W 33 50 18 27 1004.0 1004.0 6.2
30/10:43pm 9.8 - - - - W 33 54 18 29 1003.9 1003.9 6.2
30/10:30pm 9.4 - - - - W 33 48 18 26 1003.8 1003.8 6.2
30/10:02pm 9.4 - - - - W 35 54 19 29 1003.2 1003.2 6.2
30/10:00pm 9.4 - - - - W 35 52 19 28 1003.2 1003.2 6.2
30/09:30pm 9.8 - - - - W 37 57 20 31 1003.0 1003.0 6.2
30/09:00pm 10.4 - - - - W 46 67 25 36 1002.3 1002.3 6.2
30/08:30pm 10.2 - - - - W 50 72 27 39 1001.4 1001.4 6.2
30/08:00pm 10.7 - - - - WNW 39 61 21 33 1000.8 1000.8 6.2
30/07:32pm 10.7 - - - - WNW 43 63 23 34 1000.3 1000.3 6.2
30/07:30pm 10.9 - - - - WNW 46 65 25 35 1000.6 1000.6 6.2
30/07:00pm 10.8 - - - - W 37 61 20 33 999.9 999.9 6.2
30/06:30pm 10.2 - - - - W 50 74 27 40 998.8 998.8 6.2
30/06:00pm 10.9 - - - - WNW 37 56 20 30 998.0 998.0 5.8
30/05:35pm 11.6 - - - - WNW 43 61 23 33 997.8 997.8 5.6
30/05:30pm 11.5 - - - - WNW 41 54 22 29 997.8 997.8 5.4
30/05:06pm 11.4 - - - - WNW 37 57 20 31 997.8 997.8 5.0
30/05:00pm 11.4 - - - - WNW 41 57 22 31 997.8 997.8 4.8
30/04:30pm 11.4 - - - - W 37 57 20 31 997.9 997.9 3.2
30/04:00pm 12.1 - - - - WNW 43 61 23 33 997.5 997.5 2.2
30/03:59pm 12.3 - - - - WNW 43 61 23 33 997.5 997.5 2.2
30/03:55pm 12.4 - - - - WNW 46 61 25 33 997.6 997.6 2.2
30/03:38pm 14.6 - - - - NNW 48 69 26 37 996.6 996.6 0.0
30/03:30pm 15.1 - - - - NNW 48 57 26 31 996.1 996.1 0.0
30/03:00pm 15.4 - - - - NNW 44 54 24 29 996.5 996.5 0.0
30/02:30pm 14.8 - - - - NNW 41 48 22 26 997.4 997.4 0.0
30/02:00pm 14.8 - - - - NNW 48 57 26 31 998.4 998.4 0.0
30/01:30pm 15.2 - - - - NNW 46 56 25 30 999.2 999.2 0.0
30/01:00pm 14.7 - - - - NNW 46 57 25 31 999.6 999.6 0.0
30/12:30pm 14.6 - - - - NNW 50 61 27 33 1000.1 1000.1 0.0
30/12:00pm 15.0 - - - - NNW 50 59 27 32 1000.5 1000.5 0.0
30/11:30am 14.9 - - - - NNW 50 59 27 32 1001.0 1001.0 0.0
30/11:00am 14.6 - - - - NNW 54 63 29 34 1001.6 1001.6 0.0
30/10:30am 15.0 - - - - NW 50 61 27 33 1002.1 1002.1 0.0
30/10:00am 15.0 - - - - NW 44 56 24 30 1002.7 1002.7 0.0
30/09:30am 15.0 - - - - NW 44 57 24 31 1003.2 1003.2 0.0
30/09:00am 14.1 - - - - NNW 39 44 21 24 1003.6 1003.6 0.0
30/08:30am 14.1 - - - - NNW 37 44 20 24 1004.2 1004.2 0.0
30/08:00am 13.6 - - - - NNW 41 48 22 26 1004.4 1004.4 0.0
30/07:30am 13.6 - - - - NNW 39 46 21 25 1004.7 1004.7 0.0
30/07:00am 13.3 - - - - NNW 39 46 21 25 1005.0 1005.0 0.0
30/06:30am 13.1 - - - - NNW 37 48 20 26 1005.5 1005.5 0.0
30/06:00am 13.0 - - - - NNW 33 39 18 21 1005.4 1005.4 0.0
30/05:30am 13.0 - - - - NNW 30 35 16 19 1005.7 1005.7 0.0
30/05:00am 13.1 - - - - NNW 30 35 16 19 1006.0 1006.0 0.0
30/04:30am 13.3 - - - - NW 30 35 16 19 1006.7 1006.7 0.0
30/04:00am 13.3 - - - - NNW 33 39 18 21 1007.0 1007.0 0.0
30/03:30am 13.4 - - - - NW 37 43 20 23 1007.3 1007.3 0.0
30/03:00am 13.4 - - - - NNW 39 48 21 26 1007.4 1007.4 0.0
30/02:30am 13.4 - - - - NNW 41 48 22 26 1007.8 1007.8 0.0
30/02:00am 13.3 - - - - NNW 43 50 23 27 1008.2 1008.3 0.0
30/01:30am 13.3 - - - - NNW 46 57 25 31 1008.5 1008.6 0.0
30/01:00am 13.2 - - - - NNW 44 52 24 28 1008.9 1009.0 0.0
30/12:30am 13.3 - - - - NNW 44 52 24 28 1009.2 1009.3 0.0
30/12:00am 13.0 - - - - NNW 44 52 24 28 1009.2 1009.3 0.0
 
Date/Time
EST
Temp
°C
App
Temp
°C
Dew
Point
Rel
Hum
%
Delta-T
°C
Wind Press
QNH
hPa
Press
MSL
hPa
Rain
since 9 am
mm
Dir
 
Spd
km/h
Gust
km/h
Spd
kts
Gust
kts
29/11:30pm 13.2 - - - - NNW 41 50 22 27 1009.3 1009.4 0.0
29/11:00pm 13.0 - - - - NW 37 44 20 24 1009.4 1009.5 0.0
29/10:30pm 13.0 - - - - NNW 35 44 19 24 1009.4 1009.5 0.0
29/10:00pm 12.9 - - - - NW 26 37 14 20 1009.2 1009.3 0.0
29/09:30pm 12.8 - - - - WNW 28 39 15 21 1008.9 1009.0 0.0
29/09:00pm 12.8 - - - - WNW 30 43 16 23 1008.8 1008.9 0.0
29/08:30pm 12.7 - - - - WNW 26 37 14 20 1008.7 1008.8 0.0
29/08:00pm 12.8 - - - - WNW 32 43 17 23 1008.9 1009.0 0.0
29/07:30pm 12.9 - - - - WNW 32 46 17 25 1008.8 1008.9 0.0
29/07:00pm 12.9 - - - - WNW 35 52 19 28 1008.6 1008.7 0.0
29/06:30pm 13.0 - - - - WNW 41 54 22 29 1008.3 1008.4 0.0
29/06:00pm 13.1 - - - - WNW 41 57 22 31 1008.3 1008.4 0.0
29/05:30pm 13.4 - - - - WNW 43 54 23 29 1008.1 1008.2 0.0
29/05:00pm 13.8 - - - - WNW 37 50 20 27 1008.0 1008.0 0.0
29/04:30pm 13.9 - - - - WNW 43 56 23 30 1007.7 1007.7 0.0
29/04:00pm 14.2 - - - - WNW 39 52 21 28 1008.1 1008.2 0.0
29/03:30pm 14.3 - - - - WNW 41 56 22 30 1008.3 1008.4 0.0
29/03:00pm 14.9 - - - - WNW 39 57 21 31 1008.2 1008.3 0.0
29/02:42pm 14.9 - - - - WNW 39 57 21 31 1008.1 1008.2 0.0
29/02:30pm 14.9 - - - - WNW 39 54 21 29 1008.0 1008.0 0.0
29/02:17pm 15.0 - - - - WNW 39 57 21 31 1008.0 1008.0 0.0
29/02:00pm 15.0 - - - - WNW 44 57 24 31 1007.9 1007.9 0.0
29/01:30pm 15.1 - - - - WNW 41 59 22 32 1008.0 1008.0 0.0
29/01:28pm 14.9 - - - - WNW 39 59 21 32 1007.9 1007.9 0.0
29/01:00pm 15.4 - - - - WNW 41 56 22 30 1008.0 1008.0 0.0
29/12:33pm 14.7 - - - - WNW 41 61 22 33 1008.0 1008.0 0.0
29/12:30pm 14.1 - - - - WNW 41 56 22 30 1008.1 1008.2 0.0
29/12:00pm 15.2 - - - - WNW 39 54 21 29 1008.0 1008.0 0.0
29/11:30am 15.2 - - - - WNW 37 52 20 28 1007.8 1007.8 0.0
29/11:12am 14.9 - - - - WNW 41 59 22 32 1007.4 1007.4 0.0
29/11:00am 15.1 - - - - W 35 50 19 27 1007.3 1007.3 0.0
29/10:49am 14.9 - - - - WNW 41 61 22 33 1007.3 1007.3 0.0
29/10:30am 14.7 - - - - WNW 44 61 24 33 1007.1 1007.1 0.0
29/10:00am 14.5 - - - - WNW 43 57 23 31 1007.2 1007.2 0.0
29/09:52am 14.6 - - - - WNW 39 57 21 31 1007.1 1007.1 0.0
29/09:30am 14.7 - - - - WNW 37 48 20 26 1007.7 1007.7 0.0
29/09:00am 14.1 - - - - WNW 39 52 21 28 1007.6 1007.6 3.8
29/08:30am 13.8 - - - - WNW 33 46 18 25 1007.6 1007.6 3.8
29/08:00am 13.3 - - - - WNW 32 48 17 26 1007.3 1007.3 3.8
29/07:30am 13.0 - - - - WNW 33 46 18 25 1006.8 1006.8 3.8
29/07:00am 12.8 - - - - WNW 33 48 18 26 1006.3 1006.3 3.8
29/06:30am 12.5 - - - - WNW 33 48 18 26 1006.0 1006.0 3.8
29/06:00am 12.3 - - - - WNW 39 56 21 30 1005.3 1005.3 3.8
29/05:30am 12.8 - - - - WNW 33 57 18 31 1004.5 1004.5 3.8
29/05:12am 13.2 - - - - NW 41 61 22 33 1004.3 1004.3 1.4
29/05:00am 13.6 - - - - NW 43 59 23 32 1003.9 1003.9 0.8
29/04:30am 13.4 - - - - NW 35 50 19 27 1003.7 1003.7 0.8
29/04:00am 13.5 - - - - WNW 41 57 22 31 1003.6 1003.6 0.8
29/03:30am 13.2 - - - - WNW 37 50 20 27 1003.0 1003.0 0.8
29/03:00am 13.1 - - - - WNW 30 41 16 22 1003.3 1003.3 0.8
29/02:30am 13.4 - - - - NW 35 46 19 25 1003.5 1003.5 0.8
29/02:00am 13.4 - - - - NW 32 43 17 23 1002.8 1002.8 0.8
29/01:30am 14.4 - - - - NW 30 43 16 23 1002.3 1002.3 0.0
29/01:00am 14.8 - - - - NNW 30 33 16 18 1002.4 1002.4 0.0
29/12:30am 14.9 - - - - NNW 28 32 15 17 1002.8 1002.8 0.0
29/12:00am 14.9 - - - - NNW 24 30 13 16 1002.2 1002.2 0.0
 
Date/Time
EST
Temp
°C
App
Temp
°C
Dew
Point
Rel
Hum
%
Delta-T
°C
Wind Press
QNH
hPa
Press
MSL
hPa
Rain
since 9 am
mm
Dir
 
Spd
km/h
Gust
km/h
Spd
kts
Gust
kts
28/11:30pm 15.0 - - - - N 26 30 14 16 1002.1 1002.1 0.0
28/11:00pm 15.1 - - - - N 28 32 15 17 1002.5 1002.5 0.0

Other Formats:

Comma delimited format used in spreadsheet applications
http://www.bom.gov.au/fwo/IDT60801/IDT60801.95985.axf

JavaScript Object Notation format (JSON) in row-major order
http://www.bom.gov.au/fwo/IDT60801/IDT60801.95985.json